Time;durP1;ratioP1;P1;durP2;ratioP2;P2;SDS_P1;SDS_P2;PMS_P1;PMS_P2;Temp;Humidity;BMP_temperature;BMP_pressure;BME280_temperature;BME280_humidity;BME280_pressure;Samples;Min_cycle;Max_cycle;Signal;HPM_P1;HPM_P2
2021/01/12 00:01:59;;;;;;;16.65;10.25;;;;;;;5.01;100.00;100902.56;5162597;28;20050;-71
2021/01/12 00:04:32;;;;;;;15.43;10.43;;;;;;;5.02;100.00;100893.00;5177817;28;20066;-71
2021/01/12 00:07:03;;;;;;;14.32;10.70;;;;;;;4.97;100.00;100882.91;5181794;28;20046;-71
2021/01/12 00:09:35;;;;;;;15.77;9.82;;;;;;;5.01;100.00;100884.41;5178422;28;20031;-71
2021/01/12 00:12:07;;;;;;;16.45;10.15;;;;;;;5.02;100.00;100887.81;5165402;28;20027;-71
2021/01/12 00:14:38;;;;;;;15.35;10.13;;;;;;;5.03;100.00;100881.69;5181368;28;20031;-71
2021/01/12 00:17:10;;;;;;;16.42;10.15;;;;;;;5.00;100.00;100858.50;5179316;28;20059;-71
2021/01/12 00:19:41;;;;;;;12.10;9.32;;;;;;;5.03;100.00;100861.75;5201806;28;20266;-71
2021/01/12 00:22:16;;;;;;;17.77;10.18;;;;;;;5.05;100.00;100857.31;5201435;28;20049;-71
2021/01/12 00:24:49;;;;;;;15.82;9.02;;;;;;;5.09;100.00;100852.75;5184489;28;20090;-71
2021/01/12 00:27:22;;;;;;;14.63;9.27;;;;;;;5.06;100.00;100833.00;5174051;28;20502;-71
2021/01/12 00:29:54;;;;;;;;;;;;;;;5.10;100.00;100826.69;5185962;28;20442;-71
2021/01/12 00:32:27;;;;;;;12.83;8.70;;;;;;;5.05;100.00;100823.56;5185735;28;19918;-71
2021/01/12 00:34:59;;;;;;;13.23;8.93;;;;;;;5.05;100.00;100823.56;5192113;28;20787;-71
2021/01/12 00:37:30;;;;;;;15.98;10.10;;;;;;;5.07;100.00;100816.50;5180538;28;20073;-71
2021/01/12 00:40:02;;;;;;;16.42;9.85;;;;;;;5.05;100.00;100813.16;5181081;28;20117;-71
2021/01/12 00:42:34;;;;;;;14.23;9.63;;;;;;;5.08;100.00;100805.19;5180562;28;20377;-71
2021/01/12 00:45:05;;;;;;;13.23;9.13;;;;;;;5.09;100.00;100808.63;5164811;28;20031;-71
2021/01/12 00:47:37;;;;;;;12.10;9.05;;;;;;;5.11;100.00;100796.34;5164944;28;20085;-71
2021/01/12 00:50:08;;;;;;;12.20;9.50;;;;;;;5.12;100.00;100801.47;5181477;28;20057;-71
2021/01/12 00:52:40;;;;;;;12.93;9.20;;;;;;;5.08;100.00;100787.03;5179080;28;20026;-71
2021/01/12 00:55:11;;;;;;;14.82;10.15;;;;;;;5.12;100.00;100780.69;5160439;28;20060;-71
2021/01/12 00:57:43;;;;;;;11.57;8.90;;;;;;;5.18;100.00;100770.84;5185004;28;20034;-71
2021/01/12 01:00:18;;;;;;;11.65;8.88;;;;;;;5.17;100.00;100774.38;5201181;28;20022;-71
2021/01/12 01:02:50;;;;;;;9.60;8.13;;;;;;;5.16;100.00;100768.34;5197932;28;20062;-71
2021/01/12 01:05:21;;;;;;;14.75;8.60;;;;;;;5.20;100.00;100766.41;5156166;28;20448;-71
2021/01/12 01:07:52;;;;;;;11.32;8.77;;;;;;;5.20;100.00;100764.63;5161067;29;20047;-71
2021/01/12 01:10:23;;;;;;;11.18;8.20;;;;;;;5.22;100.00;100767.13;5172274;28;20023;-71
2021/01/12 01:12:55;;;;;;;13.82;9.20;;;;;;;5.23;100.00;100761.00;5158232;28;20532;-71
2021/01/12 01:15:26;;;;;;;12.40;7.90;;;;;;;5.23;100.00;100751.47;5187662;28;20034;-71
2021/01/12 01:17:57;;;;;;;10.32;8.57;;;;;;;5.23;100.00;100756.66;5179954;28;20034;-71
2021/01/12 01:20:28;;;;;;;13.93;8.57;;;;;;;5.26;100.00;100747.81;5177453;28;20441;-71
2021/01/12 01:23:00;;;;;;;11.38;7.80;;;;;;;5.26;100.00;100747.81;5169779;28;20039;-71
2021/01/12 01:25:31;;;;;;;13.27;8.05;;;;;;;5.27;100.00;100744.31;5200408;28;20034;-71
2021/01/12 01:28:02;;;;;;;11.88;8.32;;;;;;;5.29;100.00;100737.22;5180135;28;20039;-71
2021/01/12 01:30:34;;;;;;;10.57;8.18;;;;;;;5.29;100.00;100732.03;5160632;29;20062;-71
2021/01/12 01:33:05;;;;;;;10.93;7.97;;;;;;;5.30;100.00;100731.94;5179687;28;20369;-71
2021/01/12 01:35:36;;;;;;;9.88;7.45;;;;;;;5.32;100.00;100724.03;5174778;28;20038;-71
2021/01/12 01:38:07;;;;;;;9.75;7.72;;;;;;;5.33;100.00;100730.91;5179237;28;20031;-71
2021/01/12 01:40:39;;;;;;;9.15;7.57;;;;;;;5.33;100.00;100723.09;5183726;28;20049;-71
2021/01/12 01:43:20;;;;;;;9.88;7.25;;;;;;;5.36;100.00;100715.94;5177931;28;20488;-71
2021/01/12 01:45:52;;;;;;;8.70;7.50;;;;;;;5.38;100.00;100721.06;5159634;29;20046;-71
2021/01/12 01:48:23;;;;;;;8.27;7.47;;;;;;;5.40;100.00;100708.78;5160320;29;20105;-71
2021/01/12 01:50:55;;;;;;;10.55;7.95;;;;;;;5.41;100.00;100707.84;5175214;28;20119;-71
2021/01/12 01:53:26;;;;;;;9.88;7.50;;;;;;;5.43;100.00;100692.19;5172104;28;20114;-71
2021/01/12 01:55:58;;;;;;;8.68;7.43;;;;;;;5.43;100.00;100703.41;5177930;28;20089;-71
2021/01/12 01:58:30;;;;;;;10.98;7.38;;;;;;;5.45;100.00;100696.31;5179864;28;20073;-71
2021/01/12 02:01:01;;;;;;;8.38;7.40;;;;;;;5.45;100.00;100690.28;5170382;28;20425;-71
2021/01/12 02:03:44;;;;;;;10.98;6.90;;;;;;;5.49;100.00;100683.97;5169007;28;20396;-71
2021/01/12 02:06:41;;;;;;;9.57;7.38;;;;;;;5.48;100.00;100664.94;5179262;28;20043;-71
2021/01/12 02:09:38;;;;;;;9.32;7.05;;;;;;;5.51;100.00;100669.94;5173636;28;20035;-71
2021/01/12 02:12:18;;;;;;;8.02;6.63;;;;;;;5.52;100.00;100673.38;5179701;28;20026;-71
2021/01/12 02:14:53;;;;;;;11.40;7.13;;;;;;;5.48;100.00;100657.16;5179010;28;20037;-71
2021/01/12 02:17:29;;;;;;;9.30;7.18;;;;;;;5.53;100.00;100662.91;5178474;28;20031;-71
2021/01/12 02:20:01;;;;;;;9.80;6.97;;;;;;;5.55;100.00;100654.97;5179533;28;20027;-71
2021/01/12 02:22:33;;;;;;;10.68;7.88;;;;;;;5.56;100.00;100654.88;5179658;28;20027;-71
2021/01/12 02:25:07;;;;;;;8.70;7.07;;;;;;;5.56;100.00;100651.44;5164964;28;20031;-71
2021/01/12 02:27:38;;;;;;;10.38;7.55;;;;;;;5.58;100.00;100647.00;5193245;28;20556;-71
2021/01/12 02:30:10;;;;;;;9.63;7.50;;;;;;;5.52;100.00;100634.41;5186249;28;20026;-72
2021/01/12 02:32:41;;;;;;;9.18;6.93;;;;;;;5.55;100.00;100627.22;5172037;28;20042;-71
2021/01/12 02:35:15;;;;;;;9.43;7.15;;;;;;;5.58;100.00;100628.81;5173022;28;20131;-71
2021/01/12 02:37:47;;;;;;;9.18;7.78;;;;;;;5.63;100.00;100642.31;5179354;28;20499;-72
2021/01/12 02:40:19;;;;;;;7.85;7.03;;;;;;;5.65;100.00;100635.25;5188229;28;20030;-71
2021/01/12 02:42:51;;;;;;;10.18;7.05;;;;;;;5.65;100.00;100639.63;5175606;28;20041;-71
2021/01/12 02:45:22;;;;;;;8.57;7.45;;;;;;;5.63;100.00;100631.09;5164230;28;20421;-72
2021/01/12 02:47:54;;;;;;;9.43;7.50;;;;;;;5.71;100.00;100621.00;5158657;28;20027;-72
2021/01/12 02:50:25;;;;;;;7.82;6.80;;;;;;;5.73;100.00;100635.56;5140150;28;20097;-72
2021/01/12 02:52:56;;;;;;;8.85;7.10;;;;;;;5.75;100.00;100625.03;5184218;28;20026;-72
2021/01/12 02:55:27;;;;;;;8.32;7.40;;;;;;;5.74;100.00;100619.03;5188694;28;20124;-72
2021/01/12 02:57:59;;;;;;;9.23;7.50;;;;;;;5.77;100.00;100607.59;5177701;28;20464;-72
2021/01/12 03:00:30;;;;;;;8.40;7.15;;;;;;;5.78;100.00;100606.66;5175467;28;20026;-72
2021/01/12 03:03:01;;;;;;;10.55;7.10;;;;;;;5.77;100.00;100599.78;5183445;28;20082;-72
2021/01/12 03:05:32;;;;;;;9.85;7.80;;;;;;;5.77;100.00;100599.78;5158467;28;20023;-71
2021/01/12 03:08:04;;;;;;;8.85;6.47;;;;;;;5.77;100.00;100598.03;5175164;28;20023;-72
2021/01/12 03:10:35;;;;;;;10.75;7.20;;;;;;;5.75;100.00;100584.28;5167866;28;20039;-71
2021/01/12 03:13:07;;;;;;;9.23;7.07;;;;;;;5.75;100.00;100571.28;5174857;28;20457;-72
2021/01/12 03:15:39;;;;;;;8.68;7.18;;;;;;;5.83;100.00;100587.22;5181037;28;20492;-71
2021/01/12 03:18:11;;;;;;;8.60;7.70;;;;;;;5.85;100.00;100580.13;5183664;28;20037;-72
2021/01/12 03:20:42;;;;;;;8.82;7.13;;;;;;;5.86;100.00;100575.75;5178164;28;20023;-72
2021/01/12 03:23:13;;;;;;;10.13;7.30;;;;;;;5.88;100.00;100566.09;5170420;28;20033;-72
2021/01/12 03:25:45;;;;;;;8.40;7.35;;;;;;;5.88;100.00;100560.06;5187084;28;20097;-72
2021/01/12 03:28:16;;;;;;;8.23;7.03;;;;;;;5.92;100.00;100556.31;5194766;28;20045;-72
2021/01/12 03:30:47;;;;;;;9.50;7.43;;;;;;;5.91;100.00;100558.06;5172236;28;20042;-72
2021/01/12 03:33:18;;;;;;;11.23;8.25;;;;;;;5.93;100.00;100556.22;5167063;28;20068;-72
2021/01/12 03:35:50;;;;;;;11.13;7.47;;;;;;;5.92;100.00;100551.97;5174455;28;20035;-72
2021/01/12 03:38:21;;;;;;;11.02;8.63;;;;;;;5.96;100.00;100548.22;5178533;28;20022;-72
2021/01/12 03:40:54;;;;;;;8.95;8.05;;;;;;;5.98;100.00;100545.50;5180259;28;20018;-72
2021/01/12 03:43:25;;;;;;;9.55;8.35;;;;;;;5.97;100.00;100528.22;5180231;28;20033;-72
2021/01/12 03:45:56;;;;;;;9.27;8.15;;;;;;;5.96;100.00;100535.22;5162306;28;20015;-72
2021/01/12 03:48:27;;;;;;;12.25;9.43;;;;;;;5.97;100.00;100520.44;5177310;28;20027;-72
2021/01/12 03:50:59;;;;;;;9.43;8.07;;;;;;;5.99;100.00;100518.56;5177122;28;20034;-74
2021/01/12 03:53:30;;;;;;;10.93;9.35;;;;;;;6.01;100.00;100517.50;5180907;28;20022;-71
2021/01/12 03:56:01;;;;;;;11.13;9.23;;;;;;;5.96;100.00;100492.78;5173668;28;20030;-73
2021/01/12 03:58:32;;;;;;;10.27;9.27;;;;;;;6.07;100.00;100511.06;5190480;28;20431;-72
2021/01/12 04:01:04;;;;;;;11.60;9.48;;;;;;;6.08;100.00;100499.69;5185733;28;20026;-71
2021/01/12 04:03:35;;;;;;;12.25;10.73;;;;;;;5.97;100.00;100479.66;5174896;28;20039;-72
2021/01/12 04:06:16;;;;;;;11.02;9.93;;;;;;;6.16;100.00;100496.53;5175857;28;20444;-72
2021/01/12 04:08:47;;;;;;;13.10;10.30;;;;;;;6.13;100.00;100486.34;5167313;28;20357;-72
2021/01/12 04:11:19;;;;;;;13.93;11.50;;;;;;;6.19;100.00;100493.72;5183254;28;20355;-73
2021/01/12 04:13:50;;;;;;;13.93;11.48;;;;;;;6.20;100.00;100493.59;5176476;28;20030;-72
2021/01/12 04:16:25;;;;;;;14.50;10.68;;;;;;;6.23;100.00;100495.16;5179004;28;20050;-72
2021/01/12 04:18:56;;;;;;;11.98;10.77;;;;;;;6.23;100.00;100476.97;5184427;28;20062;-72
2021/01/12 04:21:27;;;;;;;16.67;12.20;;;;;;;6.26;100.00;100481.94;5178285;28;20066;-72
2021/01/12 04:23:59;;;;;;;16.65;12.30;;;;;;;6.23;100.00;100474.34;5180008;28;20018;-72
2021/01/12 04:26:30;;;;;;;18.40;13.35;;;;;;;6.27;100.00;100475.78;5198293;28;20032;-73
2021/01/12 04:29:02;;;;;;;16.92;13.52;;;;;;;6.21;100.00;100464.06;5179469;28;20030;-72
2021/01/12 04:31:33;;;;;;;15.20;13.30;;;;;;;6.31;100.00;100465.03;5179588;28;20026;-72
2021/01/12 04:34:04;;;;;;;15.38;13.50;;;;;;;6.27;100.00;100460.19;5188173;28;20042;-72
2021/01/12 04:36:35;;;;;;;17.27;14.50;;;;;;;6.35;100.00;100460.44;5161013;29;20062;-73
2021/01/12 04:39:07;;;;;;;15.15;13.60;;;;;;;6.36;100.00;100456.06;5173958;28;20025;-72
2021/01/12 04:41:38;;;;;;;17.40;14.27;;;;;;;6.36;100.00;100459.50;5190571;28;20422;-72
2021/01/12 04:44:09;;;;;;;18.73;15.57;;;;;;;6.36;100.00;100449.09;5160706;28;20473;-72
2021/01/12 04:46:41;;;;;;;17.60;15.43;;;;;;;6.40;100.00;100449.69;5163994;28;20496;-72
2021/01/12 04:49:12;;;;;;;17.13;15.32;;;;;;;6.40;100.00;100442.72;5182055;28;20031;-72
2021/01/12 04:51:44;;;;;;;15.95;14.35;;;;;;;6.44;100.00;100441.56;5178573;28;20062;-72
2021/01/12 04:54:16;;;;;;;17.52;15.38;;;;;;;6.45;100.00;100435.41;5179793;28;20027;-72
2021/01/12 04:56:47;;;;;;;17.05;15.25;;;;;;;6.38;100.00;100415.19;5186032;28;20041;-72
2021/01/12 04:59:26;;;;;;;17.58;15.73;;;;;;;6.50;100.00;100437.69;5201615;28;20026;-72
2021/01/12 05:01:58;;;;;;;18.33;16.25;;;;;;;6.49;100.00;100433.41;5171591;28;20141;-73
2021/01/12 05:04:33;;;;;;;18.83;16.85;;;;;;;6.53;100.00;100429.66;5177068;28;20126;-72
2021/01/12 05:07:09;;;;;;;18.48;16.45;;;;;;;6.51;100.00;100418.50;5171360;28;20031;-72
2021/01/12 05:09:42;;;;;;;17.23;15.40;;;;;;;6.50;100.00;100425.50;5171118;28;20042;-72
2021/01/12 05:12:14;;;;;;;19.25;16.55;;;;;;;6.47;100.00;100404.06;5162011;28;20480;-73
2021/01/12 05:14:47;;;;;;;16.25;14.55;;;;;;;6.48;100.00;100401.38;5180388;28;20065;-73
2021/01/12 05:17:23;;;;;;;18.35;15.60;;;;;;;6.58;100.00;100411.91;5197184;28;20037;-73
2021/01/12 05:19:56;;;;;;;17.75;15.63;;;;;;;6.55;100.00;100406.91;5188526;28;20034;-73
2021/01/12 05:22:30;;;;;;;16.95;14.48;;;;;;;6.50;100.00;100391.66;5179703;28;20082;-73
2021/01/12 05:25:21;;;;;;;17.75;13.82;;;;;;;6.58;100.00;100396.28;5186711;28;20387;-73
2021/01/12 05:27:53;;;;;;;15.15;13.52;;;;;;;6.62;100.00;100383.88;5180158;28;20312;-73
2021/01/12 05:30:25;;;;;;;14.70;13.25;;;;;;;6.63;100.00;100394.19;5178185;28;20551;-73
2021/01/12 05:32:58;;;;;;;15.43;13.90;;;;;;;6.63;100.00;100385.53;5160739;28;20035;-73
2021/01/12 05:35:30;;;;;;;14.38;12.88;;;;;;;6.58;100.00;100375.47;5159008;29;20066;-72
2021/01/12 05:38:07;;;;;;;15.95;13.05;;;;;;;6.65;100.00;100384.47;5187966;28;20061;-72
2021/01/12 05:40:40;;;;;;;14.88;11.63;;;;;;;6.67;100.00;100376.56;5174458;28;20056;-73
2021/01/12 05:43:13;;;;;;;11.75;10.48;;;;;;;6.68;100.00;100381.66;5161202;28;20027;-73
2021/01/12 05:45:44;;;;;;;13.10;10.60;;;;;;;6.72;100.00;100383.06;5159549;28;20522;-73
2021/01/12 05:48:18;;;;;;;13.30;11.05;;;;;;;6.67;100.00;100376.56;5173181;28;20026;-73
2021/01/12 05:50:54;;;;;;;12.23;10.65;;;;;;;6.72;100.00;100377.84;5200062;28;20106;-73
2021/01/12 05:53:42;;;;;;;12.65;10.82;;;;;;;6.79;100.00;100373.03;5199782;28;20500;-73
2021/01/12 05:56:25;;;;;;;15.57;11.55;;;;;;;6.76;100.00;100373.25;5164385;28;20034;-73
2021/01/12 05:58:57;;;;;;;13.20;10.67;;;;;;;6.78;100.00;100368.75;5193569;28;20117;-72
2021/01/12 06:01:31;;;;;;;16.45;10.05;;;;;;;6.75;100.00;100363.78;5176613;28;20324;-72
2021/01/12 06:04:09;;;;;;;11.32;9.30;;;;;;;6.76;100.00;100357.63;5161491;28;20397;-72
2021/01/12 06:06:43;;;;;;;10.98;7.97;;;;;;;6.82;100.00;100368.41;5160936;28;20027;-73
2021/01/12 06:09:16;;;;;;;10.38;7.30;;;;;;;6.85;100.00;100367.31;5184141;28;20026;-73
2021/01/12 06:11:50;;;;;;;10.93;6.47;;;;;;;6.86;100.00;100357.72;5182958;28;20027;-73
2021/01/12 06:14:23;;;;;;;9.15;5.38;;;;;;;6.83;100.00;100359.66;5182405;28;20037;-73
2021/01/12 06:16:56;;;;;;;9.77;5.30;;;;;;;6.88;100.00;100356.69;5177276;28;20041;-73
2021/01/12 06:19:29;;;;;;;11.30;5.33;;;;;;;6.90;100.00;100367.81;5179420;28;20023;-73
2021/01/12 06:22:00;;;;;;;7.95;3.92;;;;;;;6.99;100.00;100359.28;5171218;28;20062;-73
2021/01/12 06:24:37;;;;;;;9.53;3.93;;;;;;;6.98;100.00;100362.03;5174126;28;20117;-73
2021/01/12 06:27:24;;;;;;;7.28;4.68;;;;;;;6.96;100.00;100369.09;5186147;28;20038;-73
2021/01/12 06:30:07;;;;;;;8.45;4.53;;;;;;;6.94;100.00;100358.00;5177510;28;20093;-73
2021/01/12 06:32:38;;;;;;;10.15;4.47;;;;;;;6.95;100.00;100360.47;5173490;28;20365;-73
2021/01/12 06:35:10;;;;;;;8.95;4.57;;;;;;;6.92;100.00;100357.28;5183059;28;20215;-73
2021/01/12 06:37:43;;;;;;;5.88;3.78;;;;;;;6.97;100.00;100366.41;5180924;28;20165;-73
2021/01/12 06:40:17;;;;;;;;;;;;;;;7.03;100.00;100367.69;5179766;28;20030;-73
2021/01/12 06:42:48;;;;;;;;;;;;;;;7.03;100.00;100368.50;5182842;28;20408;-74
2021/01/12 06:45:20;;;;;;;6.85;4.25;;;;;;;7.01;100.00;100364.41;5175695;28;19914;-73
2021/01/12 06:47:51;;;;;;;7.40;4.65;;;;;;;6.99;100.00;100359.28;5176989;28;20038;-73
2021/01/12 06:50:24;;;;;;;7.53;4.35;;;;;;;6.95;100.00;100352.66;5196303;28;20032;-74
2021/01/12 06:52:56;;;;;;;8.82;4.82;;;;;;;6.96;100.00;100351.69;5163442;28;20031;-73
2021/01/12 06:55:28;;;;;;;7.53;4.70;;;;;;;7.05;100.00;100371.84;5170811;28;20026;-74
2021/01/12 06:58:07;;;;;;;6.25;4.25;;;;;;;7.08;100.00;100378.56;5191575;28;20089;-73
2021/01/12 07:00:39;;;;;;;11.27;5.10;;;;;;;7.10;100.00;100366.28;5193056;28;20503;-74
2021/01/12 07:03:11;;;;;;;9.20;4.47;;;;;;;7.10;100.00;100376.69;5176463;28;20053;-73
2021/01/12 07:05:45;;;;;;;9.90;4.80;;;;;;;7.07;100.00;100377.75;5177512;28;20031;-73
2021/01/12 07:08:20;;;;;;;9.82;4.90;;;;;;;7.13;100.00;100381.66;5180113;28;20038;-74
2021/01/12 07:10:51;;;;;;;11.82;4.97;;;;;;;7.09;100.00;100379.44;5174957;28;20023;-74
2021/01/12 07:13:22;;;;;;;7.60;3.88;;;;;;;7.08;100.00;100391.59;5184598;28;20503;-74
2021/01/12 07:15:54;;;;;;;8.73;5.05;;;;;;;7.05;100.00;100384.03;5173531;28;20023;-74
2021/01/12 07:18:26;;;;;;;11.68;5.30;;;;;;;7.05;100.00;100386.66;5171000;28;20113;-74
2021/01/12 07:20:57;;;;;;;7.65;4.63;;;;;;;7.05;100.00;100387.47;5168398;28;20069;-74
2021/01/12 07:23:29;;;;;;;13.25;4.93;;;;;;;7.05;100.00;100395.28;5178311;28;20105;-73
2021/01/12 07:26:04;;;;;;;15.75;5.60;;;;;;;7.00;100.00;100393.97;5176413;28;20030;-73
2021/01/12 07:28:45;;;;;;;11.98;5.22;;;;;;;7.00;100.00;100399.19;5178123;28;20030;-73
2021/01/12 07:31:26;;;;;;;10.80;4.10;;;;;;;6.94;100.00;100395.28;5177486;28;20488;-73
2021/01/12 07:33:58;;;;;;;11.02;4.38;;;;;;;6.97;100.00;100404.63;5172327;28;20030;-73
2021/01/12 07:36:33;;;;;;;10.15;3.92;;;;;;;6.93;100.00;100405.78;5173396;28;20495;-73
2021/01/12 07:39:05;;;;;;;11.38;4.53;;;;;;;6.92;100.00;100411.97;5168616;28;20019;-73
2021/01/12 07:41:37;;;;;;;9.15;4.05;;;;;;;6.93;100.00;100411.00;5176434;28;20030;-73
2021/01/12 07:44:08;;;;;;;9.00;4.05;;;;;;;6.90;100.00;100417.28;5174655;28;20428;-73
2021/01/12 07:46:39;;;;;;;16.33;4.93;;;;;;;6.91;100.00;100424.16;5175834;28;20062;-73
2021/01/12 07:49:11;;;;;;;14.13;5.30;;;;;;;6.91;100.00;100428.53;5177884;28;20035;-72
2021/01/12 07:51:44;;;;;;;11.77;5.10;;;;;;;6.88;100.00;100426.97;5175983;28;20456;-73
2021/01/12 07:54:25;;;;;;;10.68;4.88;;;;;;;6.87;100.00;100421.91;5177943;28;20052;-72
2021/01/12 07:56:56;;;;;;;9.43;4.15;;;;;;;6.91;100.00;100425.94;5179229;28;20038;-73
2021/01/12 07:59:28;;;;;;;12.57;4.70;;;;;;;6.87;100.00;100435.75;5192790;28;20029;-72
2021/01/12 08:02:04;;;;;;;13.40;5.13;;;;;;;6.85;100.00;100444.63;5172611;28;20081;-72
2021/01/12 08:04:38;;;;;;;9.85;5.32;;;;;;;6.85;100.00;100455.03;5173415;28;20514;-72
2021/01/12 08:07:20;;;;;;;9.93;5.35;;;;;;;6.81;100.00;100451.81;5173777;28;20019;-72
2021/01/12 08:09:56;;;;;;;14.20;4.10;;;;;;;6.78;100.00;100457.25;5176893;28;20054;-72
2021/01/12 08:12:27;;;;;;;10.77;3.83;;;;;;;6.82;100.00;100464.75;5178916;28;20414;-72
2021/01/12 08:15:13;;;;;;;8.00;3.58;;;;;;;6.85;100.00;100471.47;5174883;28;20055;-72
2021/01/12 08:17:49;;;;;;;6.63;3.33;;;;;;;6.80;100.00;100477.03;5164112;28;20035;-73
2021/01/12 08:20:20;;;;;;;8.35;3.63;;;;;;;6.74;100.00;100477.50;5178803;28;20026;-72
2021/01/12 08:22:55;;;;;;;7.50;3.05;;;;;;;6.69;100.00;100477.00;5179732;28;20085;-73
2021/01/12 08:25:27;;;;;;;7.15;3.00;;;;;;;6.57;100.00;100478.75;5178271;28;20037;-72
2021/01/12 08:27:59;;;;;;;9.02;3.30;;;;;;;6.64;100.00;100486.94;5163581;28;20403;-72
2021/01/12 08:30:32;;;;;;;12.85;3.92;;;;;;;6.59;100.00;100489.03;5185603;28;20314;-73
2021/01/12 08:33:26;;;;;;;7.82;3.03;;;;;;;6.61;100.00;100488.94;5180134;28;20027;-72
2021/01/12 08:36:11;;;;;;;;;;;;;;;6.63;100.00;100493.09;5175778;28;20061;-72
2021/01/12 08:38:47;;;;;;;14.50;4.40;;;;;;;6.48;100.00;100494.22;5173821;28;20361;-73
2021/01/12 08:41:19;;;;;;;11.55;3.88;;;;;;;6.46;100.00;100494.31;5179784;28;20030;-71
2021/01/12 08:43:58;;;;;;;12.07;4.15;;;;;;;6.51;100.00;100507.00;5179468;28;20039;-73
2021/01/12 08:46:30;;;;;;;11.70;4.57;;;;;;;6.51;100.00;100512.19;5177217;28;20050;-73
2021/01/12 08:49:01;;;;;;;11.35;3.95;;;;;;;6.53;100.00;100518.13;5177564;28;20464;-73
2021/01/12 08:51:33;;;;;;;9.77;4.30;;;;;;;6.54;100.00;100515.41;5182108;28;20058;-73
2021/01/12 08:54:06;;;;;;;13.40;3.63;;;;;;;6.54;100.00;100519.78;5177068;28;20380;-73
2021/01/12 08:56:38;;;;;;;14.27;4.25;;;;;;;6.49;100.00;100525.34;5176912;28;20027;-73
2021/01/12 08:59:10;;;;;;;8.27;3.75;;;;;;;6.51;100.00;100531.25;5172134;28;20049;-73
2021/01/12 09:01:42;;;;;;;11.73;4.65;;;;;;;6.43;100.00;100517.97;5179927;28;20501;-73
2021/01/12 09:04:14;;;;;;;11.07;4.27;;;;;;;6.52;100.00;100535.53;5178155;28;20058;-73
2021/01/12 09:06:45;;;;;;;10.65;3.83;;;;;;;6.53;100.00;100538.94;5177766;28;20034;-73
2021/01/12 09:09:16;;;;;;;14.80;4.05;;;;;;;6.53;100.00;100547.59;5174405;28;20018;-73
2021/01/12 09:11:48;;;;;;;13.07;4.97;;;;;;;6.44;100.00;100535.25;5172534;28;20038;-73
2021/01/12 09:14:20;;;;;;;9.93;4.50;;;;;;;6.56;100.00;100552.56;5171784;28;20027;-73
2021/01/12 09:17:02;;;;;;;12.05;4.93;;;;;;;6.55;100.00;100556.13;5173322;28;20053;-73
2021/01/12 09:19:37;;;;;;;9.48;4.35;;;;;;;6.58;100.00;100568.91;5169840;28;20030;-73
2021/01/12 09:22:16;;;;;;;10.00;5.03;;;;;;;6.53;100.00;100564.97;5169365;28;20488;-73
2021/01/12 09:24:53;;;;;;;12.60;5.22;;;;;;;6.55;100.00;100578.69;5174260;28;20039;-73
2021/01/12 09:27:27;;;;;;;8.60;4.28;;;;;;;6.61;100.00;100583.47;5176438;28;20051;-73
2021/01/12 09:29:59;;;;;;;9.75;4.55;;;;;;;6.54;100.00;100588.28;5177467;28;20027;-72
2021/01/12 09:32:32;;;;;;;6.85;4.20;;;;;;;6.57;100.00;100595.88;5168529;28;20062;-74
2021/01/12 09:35:06;;;;;;;11.55;4.65;;;;;;;6.55;100.00;100604.72;5185325;28;20030;-74
2021/01/12 09:37:37;;;;;;;9.13;4.18;;;;;;;6.51;100.00;100595.47;5173713;28;20050;-73
2021/01/12 09:40:09;;;;;;;11.43;4.18;;;;;;;6.54;100.00;100608.28;5174358;28;20027;-73
2021/01/12 09:42:44;;;;;;;10.20;4.40;;;;;;;6.52;100.00;100613.59;5173177;28;20030;-73
2021/01/12 09:45:16;;;;;;;5.35;3.45;;;;;;;6.42;100.00;100609.97;5163302;28;20031;-71
2021/01/12 09:47:47;;;;;;;6.03;3.90;;;;;;;6.42;100.00;100614.38;5172739;28;20065;-73
2021/01/12 09:50:18;;;;;;;6.97;3.40;;;;;;;6.44;100.00;100636.75;5168517;28;20027;-73
2021/01/12 09:52:50;;;;;;;6.47;3.60;;;;;;;6.45;100.00;100641.00;5167400;28;20022;-73
2021/01/12 09:55:21;;;;;;;7.53;3.00;;;;;;;6.45;100.00;100650.59;5165733;28;20158;-73
2021/01/12 09:57:53;;;;;;;5.65;2.80;;;;;;;6.34;100.00;100638.31;5169142;28;20467;-72
2021/01/12 10:00:24;;;;;;;4.63;2.58;;;;;;;6.45;100.00;100658.38;5166492;28;20469;-72
2021/01/12 10:02:55;;;;;;;6.53;2.50;;;;;;;6.39;100.00;100661.41;5170950;28;20054;-71
2021/01/12 10:05:26;;;;;;;4.55;2.90;;;;;;;6.34;100.00;100677.34;5171308;28;20116;-73
2021/01/12 10:07:58;;;;;;;4.57;2.60;;;;;;;6.35;100.00;100684.22;5174268;28;20035;-71
2021/01/12 10:10:29;;;;;;;6.95;2.92;;;;;;;6.33;100.00;100679.13;5171516;28;20039;-71
2021/01/12 10:13:02;;;;;;;5.32;2.63;;;;;;;6.29;100.00;100687.25;5168164;28;20039;-71
2021/01/12 10:15:33;;;;;;;6.30;2.47;;;;;;;6.31;100.00;100694.00;5170205;28;20268;-75
2021/01/12 10:18:06;;;;;;;4.63;2.22;;;;;;;6.26;96.88;100700.47;5173627;28;20053;-71
2021/01/12 10:20:37;;;;;;;5.20;2.30;;;;;;;6.25;100.00;100711.78;5167701;28;20520;-71
2021/01/12 10:23:08;;;;;;;4.20;2.20;;;;;;;6.21;99.27;100721.59;5164393;28;20282;-74
2021/01/12 10:25:40;;;;;;;3.83;2.20;;;;;;;6.17;97.53;100714.09;5165220;28;20360;-72
2021/01/12 10:28:14;;;;;;;5.38;2.22;;;;;;;6.05;97.21;100708.78;5164128;28;20058;-71
2021/01/12 10:30:46;;;;;;;4.07;1.98;;;;;;;6.07;97.93;100737.31;5169423;28;20035;-71
2021/01/12 10:33:17;;;;;;;4.50;1.92;;;;;;;5.97;96.94;100711.06;5171706;28;20019;-72
2021/01/12 10:35:48;;;;;;;3.65;2.05;;;;;;;6.00;97.34;100729.09;5168846;28;20049;-72
2021/01/12 10:38:20;;;;;;;4.95;1.88;;;;;;;6.04;95.94;100742.72;5172837;28;20029;-73
2021/01/12 10:40:51;;;;;;;4.10;1.80;;;;;;;6.00;95.89;100749.88;5166201;28;20066;-72
2021/01/12 10:43:22;;;;;;;3.45;1.70;;;;;;;6.04;97.24;100750.50;5175880;28;20023;-73
2021/01/12 10:45:54;;;;;;;3.90;1.85;;;;;;;6.14;93.90;100759.38;5169588;28;20034;-73
2021/01/12 10:48:26;;;;;;;8.27;2.30;;;;;;;6.12;96.08;100761.22;5171566;28;20436;-72
2021/01/12 10:50:57;;;;;;;5.20;1.63;;;;;;;6.16;95.19;100769.66;5171483;28;20026;-72
2021/01/12 10:53:29;;;;;;;6.78;2.00;;;;;;;6.11;97.38;100772.56;5165456;28;20023;-74
2021/01/12 10:56:01;;;;;;;5.20;1.35;;;;;;;6.17;95.54;100774.75;5169393;28;20019;-72
2021/01/12 10:58:33;;;;;;;4.47;1.08;;;;;;;6.21;90.85;100775.38;5168602;28;20362;-72
2021/01/12 11:01:04;;;;;;;7.18;1.70;;;;;;;6.17;91.62;100776.53;5147638;28;20049;-72
2021/01/12 11:03:38;;;;;;;5.43;1.70;;;;;;;6.12;95.12;100776.00;5169079;28;20563;-72
2021/01/12 11:06:12;;;;;;;7.07;1.90;;;;;;;6.07;92.39;100778.91;5166056;28;20048;-71
2021/01/12 11:08:43;;;;;;;7.30;1.45;;;;;;;6.02;91.31;100771.44;5171739;28;20039;-72
2021/01/12 11:11:21;;;;;;;7.40;1.35;;;;;;;6.02;95.21;100784.44;5172305;28;20035;-72
2021/01/12 11:13:56;;;;;;;7.32;1.50;;;;;;;5.94;97.65;100784.09;5174559;28;20022;-71
2021/01/12 11:16:38;;;;;;;5.32;1.42;;;;;;;5.87;98.51;100793.19;5160007;28;20027;-71
2021/01/12 11:19:10;;;;;;;7.15;1.60;;;;;;;5.85;96.11;100802.88;5170375;28;20046;-71
2021/01/12 11:21:50;;;;;;;4.05;1.50;;;;;;;5.70;100.00;100793.47;5177416;28;20030;-73
2021/01/12 11:24:24;;;;;;;3.22;1.00;;;;;;;5.58;100.00;100789.91;5167523;28;20308;-72
2021/01/12 11:26:55;;;;;;;6.18;1.50;;;;;;;5.56;100.00;100797.78;5176493;28;20058;-71
2021/01/12 11:29:27;;;;;;;4.88;1.40;;;;;;;5.55;98.92;100813.50;5182504;28;20055;-70
2021/01/12 11:31:59;;;;;;;5.43;1.40;;;;;;;5.52;100.00;100818.88;5170850;28;20038;-71
2021/01/12 11:34:31;;;;;;;5.93;1.48;;;;;;;5.51;100.00;100815.47;5177214;28;20031;-71
2021/01/12 11:37:02;;;;;;;7.63;1.60;;;;;;;5.57;100.00;100809.88;5176122;28;20427;-71
2021/01/12 11:39:35;;;;;;;8.40;1.55;;;;;;;5.58;100.00;100808.09;5170576;28;20019;-72
2021/01/12 11:42:14;;;;;;;2.95;1.38;;;;;;;5.67;99.41;100823.09;5180009;28;20026;-71
2021/01/12 11:44:45;;;;;;;5.07;1.23;;;;;;;5.69;96.92;100823.00;5178392;28;20053;-71
2021/01/12 11:47:17;;;;;;;5.88;1.60;;;;;;;5.80;100.00;100825.75;5156436;28;20031;-71
2021/01/12 11:49:48;;;;;;;7.53;2.10;;;;;;;5.86;96.90;100820.97;5172692;28;20403;-71